createdAt,value
2022-12-05T00:03:34.264Z,25.48
2022-12-05T00:08:35.984Z,25.65
2022-12-05T00:13:39.984Z,27.25
2022-12-05T00:18:42.493Z,28.25
2022-12-05T00:23:44.684Z,25.40
2022-12-05T00:28:46.686Z,27.80
2022-12-05T00:33:49.296Z,28.02
2022-12-05T00:38:51.871Z,26.10
2022-12-05T00:43:54.880Z,29.27
2022-12-05T00:48:58.516Z,27.08
2022-12-05T00:54:02.503Z,28.17
2022-12-05T00:59:05.595Z,31.25
2022-12-05T01:04:11.574Z,25.80
2022-12-05T01:09:15.751Z,27.45
2022-12-05T01:14:19.903Z,27.23
2022-12-05T01:19:24.890Z,30.13
2022-12-05T01:24:28.928Z,24.42
2022-12-05T01:29:30.735Z,25.80
2022-12-05T01:34:32.457Z,28.38
2022-12-05T01:39:34.164Z,26.25
2022-12-05T01:44:35.819Z,24.38
2022-12-05T01:49:41.315Z,26.40
2022-12-05T01:54:46.029Z,22.83
2022-12-05T01:59:52.884Z,29.30
2022-12-05T02:04:57.518Z,24.52
2022-12-05T02:09:59.730Z,23.48
2022-12-05T02:15:22.860Z,29.48
2022-12-05T02:20:49.196Z,24.60
2022-12-05T02:25:56.707Z,25.77
2022-12-05T02:31:08.790Z,23.77
2022-12-05T02:36:14.575Z,26.23
2022-12-05T02:41:34.104Z,19.15
2022-12-05T02:46:39.393Z,21.80
2022-12-05T02:51:53.126Z,24.02
2022-12-05T02:56:56.756Z,23.00
2022-12-05T03:01:58.481Z,23.23
2022-12-05T03:07:05.114Z,22.02
2022-12-05T03:12:13.148Z,20.98
2022-12-05T03:17:19.099Z,22.58
2022-12-05T03:22:35.668Z,22.23
2022-12-05T03:27:52.381Z,19.15
2022-12-05T03:33:03.777Z,18.10
2022-12-05T03:38:05.394Z,21.20
2022-12-05T03:43:14.736Z,15.77
2022-12-05T03:48:44.238Z,17.60
2022-12-05T03:53:56.252Z,17.05
2022-12-05T03:59:34.715Z,15.35
2022-12-05T04:04:40.665Z,13.38
2022-12-05T04:09:50.246Z,15.43
2022-12-05T04:14:59.423Z,16.63
2022-12-05T04:20:24.062Z,15.45
2022-12-05T04:25:34.166Z,14.75
2022-12-05T04:30:43.109Z,14.00
2022-12-05T04:35:53.098Z,16.23
2022-12-05T04:41:01.493Z,16.35
2022-12-05T04:46:07.203Z,15.93
2022-12-05T04:51:17.422Z,15.80
2022-12-05T04:56:22.653Z,14.77
2022-12-05T05:01:38.513Z,15.73
2022-12-05T05:06:41.394Z,16.17
2022-12-05T05:11:43.144Z,16.55
2022-12-05T05:16:44.923Z,16.92
2022-12-05T05:21:46.646Z,17.77
2022-12-05T05:26:52.477Z,16.65
2022-12-05T05:31:57.243Z,18.65
2022-12-05T05:36:58.950Z,17.60
2022-12-05T05:42:00.637Z,16.15
2022-12-05T05:47:02.347Z,17.05
2022-12-05T05:52:04.217Z,18.02
2022-12-05T05:57:05.878Z,15.07
2022-12-05T06:02:07.626Z,17.33
2022-12-05T06:07:09.302Z,16.88
2022-12-05T06:12:11.009Z,19.08
2022-12-05T06:17:12.676Z,15.30
2022-12-05T06:22:14.410Z,16.50
2022-12-05T06:27:16.079Z,17.08
2022-12-05T06:32:17.739Z,16.98
2022-12-05T06:37:19.423Z,18.17
2022-12-05T06:42:22.446Z,18.48
2022-12-05T06:47:24.156Z,18.70
2022-12-05T06:52:25.834Z,18.50
2022-12-05T06:57:31.293Z,16.67
2022-12-05T07:02:33.180Z,19.52
2022-12-05T07:07:35.014Z,16.80
2022-12-05T07:12:36.815Z,15.80
2022-12-05T07:17:39.202Z,17.50
2022-12-05T07:22:40.913Z,16.35
2022-12-05T07:27:42.598Z,15.30
2022-12-05T07:32:44.344Z,17.85
2022-12-05T07:37:46.044Z,18.70
2022-12-05T07:42:53.470Z,18.33
2022-12-05T07:47:55.240Z,25.08
2022-12-05T07:52:57.041Z,34.53
2022-12-05T07:57:58.716Z,35.20
2022-12-05T08:03:03.298Z,35.63
2022-12-05T08:08:05.494Z,34.65
2022-12-05T08:13:08.531Z,26.83
2022-12-05T08:18:11.485Z,28.10
2022-12-05T08:23:13.151Z,24.05
2022-12-05T08:28:14.816Z,26.55
2022-12-05T08:33:16.507Z,23.33
2022-12-05T08:38:18.214Z,27.10
2022-12-05T08:43:19.896Z,39.22
2022-12-05T08:48:27.549Z,22.48
2022-12-05T08:53:30.820Z,22.20
2022-12-05T08:58:32.620Z,21.77
2022-12-05T09:03:34.455Z,20.88
2022-12-05T09:08:36.819Z,18.15
2022-12-05T09:13:38.993Z,22.95
2022-12-05T09:18:41.137Z,22.05
2022-12-05T09:23:44.240Z,23.52
2022-12-05T09:28:46.037Z,24.00
2022-12-05T09:33:49.058Z,19.50
2022-12-05T09:38:52.038Z,26.15
2022-12-05T09:44:12.987Z,19.67
2022-12-05T09:49:14.696Z,18.90
2022-12-05T09:54:17.135Z,20.88
2022-12-05T09:59:20.642Z,20.55
2022-12-05T10:04:46.484Z,20.35
2022-12-05T10:09:56.881Z,22.30
2022-12-05T10:15:13.205Z,20.05
2022-12-05T10:20:28.815Z,17.85
2022-12-05T10:25:32.468Z,21.33
2022-12-05T10:30:36.897Z,19.38
2022-12-05T10:35:40.496Z,16.80
2022-12-05T10:40:46.984Z,18.02
2022-12-05T10:45:48.710Z,17.23
2022-12-05T10:50:56.239Z,14.02
2022-12-05T10:56:29.427Z,14.00
2022-12-05T11:01:19.911Z,17.17
2022-12-05T11:06:28.407Z,12.55
2022-12-05T11:11:35.441Z,11.93
2022-12-05T11:16:38.927Z,13.02
2022-12-05T11:21:44.190Z,15.77
2022-12-05T11:26:46.041Z,11.88
2022-12-05T11:31:52.318Z,12.73
2022-12-05T11:37:04.976Z,14.23
2022-12-05T11:42:15.816Z,10.10
2022-12-05T11:47:49.800Z,9.25
2022-12-05T11:53:22.123Z,9.80
2022-12-05T11:58:25.369Z,8.75
2022-12-05T12:03:54.864Z,12.15
2022-12-05T12:09:12.897Z,9.30
2022-12-05T12:14:25.991Z,9.38
2022-12-05T12:19:54.153Z,10.88
2022-12-05T12:25:03.150Z,10.30
2022-12-05T12:30:15.130Z,13.63
2022-12-05T12:35:32.268Z,9.15
2022-12-05T12:40:59.611Z,10.95
2022-12-05T12:46:16.578Z,10.52
2022-12-05T12:51:18.299Z,11.75
2022-12-05T12:56:25.848Z,10.90
2022-12-05T13:01:34.146Z,9.93
2022-12-05T13:06:39.830Z,15.50
2022-12-05T13:11:46.278Z,12.40
2022-12-05T13:16:52.169Z,11.70
2022-12-05T13:21:57.411Z,11.00
2022-12-05T13:27:02.625Z,10.68
2022-12-05T13:32:05.670Z,8.70
2022-12-05T13:37:36.355Z,12.43
2022-12-05T13:42:38.514Z,9.70
2022-12-05T13:47:46.285Z,16.00
2022-12-05T13:52:52.214Z,8.80
2022-12-05T13:57:57.391Z,7.90
2022-12-05T14:03:16.345Z,6.72
2022-12-05T14:08:35.965Z,9.55
2022-12-05T14:13:43.558Z,9.70
2022-12-05T14:19:05.892Z,7.78
2022-12-05T14:24:27.061Z,10.57
2022-12-05T14:29:37.415Z,9.93
2022-12-05T14:34:54.992Z,8.77
2022-12-05T14:40:00.201Z,10.13
2022-12-05T14:45:21.640Z,12.75
2022-12-05T14:50:32.522Z,14.23
2022-12-05T14:55:36.356Z,13.55
2022-12-05T15:00:38.325Z,12.27
2022-12-05T15:05:43.344Z,22.73
2022-12-05T15:10:45.809Z,23.45
2022-12-05T15:16:06.423Z,13.10
2022-12-05T15:21:21.187Z,13.70
2022-12-05T15:26:55.238Z,10.32
2022-12-05T15:32:25.689Z,12.57
2022-12-05T15:37:51.444Z,12.50
2022-12-05T15:42:57.631Z,15.32
2022-12-05T15:48:02.413Z,15.38
2022-12-05T15:53:34.806Z,16.75
2022-12-05T15:58:47.813Z,12.43
2022-12-05T16:04:00.066Z,12.70
2022-12-05T16:09:10.110Z,14.20
2022-12-05T16:14:18.261Z,12.48
2022-12-05T16:19:32.954Z,15.15
2022-12-05T16:24:48.447Z,13.45
2022-12-05T16:30:29.839Z,11.82
2022-12-05T16:35:36.120Z,13.75
2022-12-05T16:40:57.331Z,10.13
2022-12-05T16:46:28.111Z,13.15
2022-12-05T16:51:40.653Z,14.85
2022-12-05T16:56:42.326Z,11.82
2022-12-05T17:01:43.991Z,11.98
2022-12-05T17:06:45.719Z,12.13
2022-12-05T17:11:51.007Z,10.27
2022-12-05T17:16:52.668Z,11.10
2022-12-05T17:21:54.767Z,12.00
2022-12-05T17:26:56.418Z,12.38
2022-12-05T17:31:58.190Z,9.43
2022-12-05T17:37:00.342Z,11.38
2022-12-05T17:42:02.409Z,10.90
2022-12-05T17:47:07.933Z,13.05
2022-12-05T17:52:26.617Z,10.60
2022-12-05T17:57:28.291Z,11.52
2022-12-05T18:02:29.946Z,11.82
2022-12-05T18:07:31.672Z,13.70
2022-12-05T18:12:34.090Z,13.93
2022-12-05T18:17:35.955Z,11.98
2022-12-05T18:22:37.667Z,11.45
2022-12-05T18:27:39.397Z,13.52
2022-12-05T18:32:41.119Z,12.93
2022-12-05T18:37:42.800Z,15.60
2022-12-05T18:42:44.460Z,13.98
2022-12-05T18:47:46.120Z,13.85
2022-12-05T18:52:47.865Z,14.43
2022-12-05T18:57:49.595Z,15.15
2022-12-05T19:02:52.207Z,15.88
2022-12-05T19:07:54.414Z,16.20
2022-12-05T19:12:57.141Z,18.38
2022-12-05T19:17:58.799Z,13.93
2022-12-05T19:23:01.161Z,13.65
2022-12-05T19:28:03.299Z,13.77
2022-12-05T19:33:04.976Z,15.60
2022-12-05T19:38:06.636Z,14.88
2022-12-05T19:43:08.318Z,12.98
2022-12-05T19:48:09.979Z,14.10
2022-12-05T19:53:12.437Z,14.05
2022-12-05T19:58:14.140Z,16.27
2022-12-05T20:03:15.937Z,13.68
2022-12-05T20:08:17.712Z,14.15
2022-12-05T20:13:45.452Z,12.30
2022-12-05T20:18:42.326Z,14.00
2022-12-05T20:23:44.054Z,15.65
2022-12-05T20:28:46.323Z,15.18
2022-12-05T20:33:50.813Z,14.23
2022-12-05T20:39:01.938Z,13.10
2022-12-05T20:44:07.329Z,11.85
2022-12-05T20:49:09.469Z,14.18
2022-12-05T20:54:16.647Z,13.15
2022-12-05T20:59:18.309Z,9.32
2022-12-05T21:04:20.081Z,10.63
2022-12-05T21:09:30.069Z,8.35
2022-12-05T21:14:34.232Z,10.40
2022-12-05T21:19:35.976Z,10.20
2022-12-05T21:24:37.638Z,7.43
2022-12-05T21:29:39.302Z,5.80
2022-12-05T21:34:40.999Z,5.68
2022-12-05T21:39:42.790Z,5.85
2022-12-05T21:44:44.468Z,4.78
2022-12-05T21:49:46.136Z,5.07
2022-12-05T21:54:48.092Z,6.68
2022-12-05T21:59:49.757Z,6.65
2022-12-05T22:04:51.480Z,5.38
2022-12-05T22:09:53.218Z,5.63
2022-12-05T22:14:54.958Z,5.40
2022-12-05T22:19:57.446Z,5.70
2022-12-05T22:24:59.698Z,7.73
2022-12-05T22:30:01.831Z,6.30
2022-12-05T22:35:04.530Z,6.00
2022-12-05T22:40:07.023Z,6.95
2022-12-05T22:45:09.198Z,6.25
2022-12-05T22:50:11.113Z,6.38
2022-12-05T22:55:12.790Z,8.82
2022-12-05T23:00:15.165Z,6.68
2022-12-05T23:05:16.957Z,7.78
2022-12-05T23:10:18.730Z,7.00
2022-12-05T23:15:20.467Z,7.32
2022-12-05T23:20:22.219Z,6.95
2022-12-05T23:25:23.950Z,5.97
2022-12-05T23:30:25.703Z,6.95
2022-12-05T23:35:27.433Z,6.28
2022-12-05T23:40:29.181Z,6.43
2022-12-05T23:45:30.906Z,6.15
2022-12-05T23:50:32.797Z,9.20
2022-12-05T23:55:34.720Z,6.97
